createdAt,value
2022-10-13T00:01:25.483Z,41.58
2022-10-13T00:03:54.694Z,41.49
2022-10-13T00:06:25.577Z,41.57
2022-10-13T00:08:54.095Z,41.82
2022-10-13T00:11:26.659Z,41.74
2022-10-13T00:13:58.434Z,41.99
2022-10-13T00:16:28.933Z,41.96
2022-10-13T00:18:57.867Z,41.93
2022-10-13T00:21:28.608Z,42.07
2022-10-13T00:23:57.440Z,42.09
2022-10-13T00:26:28.454Z,42.33
2022-10-13T00:28:57.275Z,42.21
2022-10-13T00:31:28.466Z,42.27
2022-10-13T00:33:58.683Z,42.43
2022-10-13T00:36:27.118Z,42.33
2022-10-13T00:38:55.597Z,42.53
2022-10-13T00:41:24.047Z,42.57
2022-10-13T00:44:00.253Z,42.51
2022-10-13T00:46:31.746Z,42.58
2022-10-13T00:49:04.007Z,42.56
2022-10-13T00:51:39.295Z,42.64
2022-10-13T00:54:11.016Z,42.52
2022-10-13T00:56:42.898Z,42.50
2022-10-13T00:59:23.097Z,42.79
2022-10-13T01:01:52.349Z,42.58
2022-10-13T01:04:23.539Z,42.66
2022-10-13T01:06:52.340Z,42.76
2022-10-13T01:09:20.706Z,42.61
2022-10-13T01:12:03.928Z,42.58
2022-10-13T01:14:42.614Z,42.78
2022-10-13T01:17:21.512Z,42.70
2022-10-13T01:20:32.482Z,42.85
2022-10-13T01:23:31.557Z,42.86
2022-10-13T01:26:30.012Z,43.14
2022-10-13T01:29:27.401Z,42.78
2022-10-13T01:32:05.544Z,42.82
2022-10-13T01:34:44.156Z,43.04
2022-10-13T01:37:21.421Z,43.00
2022-10-13T01:39:58.482Z,43.21
2022-10-13T01:42:37.912Z,43.23
2022-10-13T01:45:08.894Z,43.22
2022-10-13T01:47:39.907Z,43.25
2022-10-13T01:50:09.733Z,43.10
2022-10-13T01:52:40.288Z,43.30
2022-10-13T01:55:11.479Z,43.31
2022-10-13T01:57:42.582Z,43.44
2022-10-13T02:00:14.667Z,43.47
2022-10-13T02:02:56.834Z,43.71
2022-10-13T02:05:35.599Z,43.77
2022-10-13T02:08:10.948Z,43.78
2022-10-13T02:10:47.609Z,43.70
2022-10-13T02:13:20.646Z,43.74
2022-10-13T02:15:54.192Z,43.81
2022-10-13T02:18:29.306Z,43.90
2022-10-13T02:20:58.245Z,43.97
2022-10-13T02:23:27.911Z,43.97
2022-10-13T02:25:58.625Z,43.87
2022-10-13T02:28:28.204Z,44.06
2022-10-13T02:30:57.255Z,43.96
2022-10-13T02:33:27.139Z,43.86
2022-10-13T02:35:55.539Z,43.91
2022-10-13T02:38:23.960Z,43.95
2022-10-13T02:40:52.336Z,43.96
2022-10-13T02:43:20.708Z,43.79
2022-10-13T02:45:49.045Z,43.76
2022-10-13T02:48:17.360Z,43.75
2022-10-13T02:50:48.286Z,43.77
2022-10-13T02:53:16.642Z,43.73
2022-10-13T02:55:45.035Z,43.74
2022-10-13T02:58:13.416Z,43.73
2022-10-13T03:00:41.766Z,43.71
2022-10-13T03:03:11.062Z,43.60
2022-10-13T03:05:39.458Z,43.75
2022-10-13T03:08:09.270Z,43.66
2022-10-13T03:10:37.646Z,43.64
2022-10-13T03:13:05.978Z,43.63
2022-10-13T03:15:34.274Z,43.55
2022-10-13T03:18:02.610Z,43.54
2022-10-13T03:20:30.932Z,43.54
2022-10-13T03:22:59.293Z,43.57
2022-10-13T03:25:29.505Z,43.55
2022-10-13T03:27:57.859Z,43.37
2022-10-13T03:30:26.354Z,43.55
2022-10-13T03:32:54.934Z,43.54
2022-10-13T03:35:23.402Z,43.37
2022-10-13T03:37:51.800Z,43.41
2022-10-13T03:40:20.124Z,43.36
2022-10-13T03:42:49.842Z,43.32
2022-10-13T03:45:18.446Z,43.36
2022-10-13T03:47:46.845Z,43.40
2022-10-13T03:50:15.544Z,43.23
2022-10-13T03:52:43.894Z,43.38
2022-10-13T03:55:12.251Z,43.43
2022-10-13T03:57:40.588Z,43.46
2022-10-13T04:00:12.751Z,43.31
2022-10-13T04:02:41.172Z,43.38
2022-10-13T04:05:10.661Z,43.36
2022-10-13T04:07:39.027Z,43.45
2022-10-13T04:10:11.416Z,43.58
2022-10-13T04:12:40.025Z,43.55
2022-10-13T04:15:11.810Z,43.42
2022-10-13T04:17:40.184Z,43.58
2022-10-13T04:20:10.552Z,43.48
2022-10-13T04:22:39.025Z,43.76
2022-10-13T04:25:09.599Z,43.62
2022-10-13T04:27:39.504Z,43.50
2022-10-13T04:30:13.697Z,43.64
2022-10-13T04:32:42.110Z,43.79
2022-10-13T04:35:10.938Z,43.67
2022-10-13T04:37:44.839Z,43.69
2022-10-13T04:40:14.219Z,43.76
2022-10-13T04:42:42.762Z,43.59
2022-10-13T04:45:13.082Z,43.86
2022-10-13T04:47:41.504Z,43.86
2022-10-13T04:50:11.248Z,43.84
2022-10-13T04:52:39.629Z,43.99
2022-10-13T04:55:10.325Z,44.02
2022-10-13T04:57:38.795Z,44.00
2022-10-13T05:00:09.675Z,44.03
2022-10-13T05:02:39.847Z,43.86
2022-10-13T05:05:10.174Z,44.07
2022-10-13T05:07:38.540Z,44.02
2022-10-13T05:10:07.674Z,44.09
2022-10-13T05:12:36.249Z,44.06
2022-10-13T05:15:05.276Z,44.23
2022-10-13T05:17:35.543Z,44.10
2022-10-13T05:20:06.321Z,44.04
2022-10-13T05:22:34.674Z,44.05
2022-10-13T05:25:03.055Z,44.17
2022-10-13T05:27:31.397Z,44.18
2022-10-13T05:29:59.758Z,44.03
2022-10-13T05:32:28.128Z,44.14
2022-10-13T05:34:56.488Z,44.10
2022-10-13T05:37:26.369Z,44.12
2022-10-13T05:39:54.756Z,43.92
2022-10-13T05:42:23.283Z,44.05
2022-10-13T05:44:52.237Z,43.92
2022-10-13T05:47:20.604Z,43.97
2022-10-13T05:49:48.947Z,43.82
2022-10-13T05:52:17.579Z,43.85
2022-10-13T05:54:51.705Z,43.83
2022-10-13T05:57:23.447Z,43.90
2022-10-13T05:59:57.600Z,43.67
2022-10-13T06:02:31.554Z,43.66
2022-10-13T06:04:59.961Z,43.81
2022-10-13T06:07:28.355Z,43.73
2022-10-13T06:09:59.257Z,43.77
2022-10-13T06:12:27.634Z,43.75
2022-10-13T06:14:56.015Z,43.77
2022-10-13T06:17:24.449Z,43.92
2022-10-13T06:19:52.810Z,43.94
2022-10-13T06:22:22.468Z,43.91
2022-10-13T06:24:50.949Z,43.65
2022-10-13T06:27:20.684Z,43.88
2022-10-13T06:29:49.103Z,43.72
2022-10-13T06:32:17.726Z,43.45
2022-10-13T06:34:46.261Z,43.47
2022-10-13T06:37:14.602Z,43.49
2022-10-13T06:39:43.019Z,43.50
2022-10-13T06:42:11.432Z,43.27
2022-10-13T06:44:41.214Z,43.21
2022-10-13T06:47:09.979Z,43.07
2022-10-13T06:49:38.401Z,43.07
2022-10-13T06:52:07.161Z,43.18
2022-10-13T06:54:35.595Z,42.98
2022-10-13T06:57:06.764Z,43.05
2022-10-13T06:59:35.223Z,42.94
2022-10-13T07:02:05.054Z,43.06
2022-10-13T07:04:33.471Z,42.89
2022-10-13T07:07:01.841Z,43.13
2022-10-13T07:09:30.394Z,43.17
2022-10-13T07:11:58.823Z,42.88
2022-10-13T07:14:27.538Z,43.11
2022-10-13T07:16:55.954Z,42.76
2022-10-13T07:19:25.708Z,42.78
2022-10-13T07:21:54.563Z,42.62
2022-10-13T07:24:23.211Z,42.68
2022-10-13T07:26:51.634Z,42.53
2022-10-13T07:29:20.021Z,42.58
2022-10-13T07:31:48.595Z,42.43
2022-10-13T07:34:17.592Z,42.79
2022-10-13T07:36:47.348Z,42.23
2022-10-13T07:39:15.752Z,42.14
2022-10-13T07:41:47.537Z,42.64
2022-10-13T07:44:19.530Z,42.23
2022-10-13T07:46:47.947Z,42.39
2022-10-13T07:49:16.673Z,42.33
2022-10-13T07:51:46.479Z,42.73
2022-10-13T07:54:15.564Z,42.38
2022-10-13T07:56:44.019Z,42.37
2022-10-13T07:59:12.743Z,42.16
2022-10-13T08:01:41.693Z,42.13
2022-10-13T08:04:10.208Z,41.73
2022-10-13T08:09:13.592Z,41.63
2022-10-13T08:11:41.989Z,41.76
2022-10-13T08:14:13.526Z,42.00
2022-10-13T08:16:48.617Z,41.85
2022-10-13T08:19:22.722Z,42.01
2022-10-13T08:21:59.518Z,42.03
2022-10-13T08:24:30.834Z,41.93
2022-10-13T08:26:59.259Z,41.66
2022-10-13T08:29:27.778Z,41.84
2022-10-13T08:31:56.749Z,41.74
2022-10-13T08:34:26.881Z,41.07
2022-10-13T08:36:56.786Z,40.82
2022-10-13T08:39:26.014Z,40.82
2022-10-13T08:41:57.927Z,40.58
2022-10-13T08:47:43.208Z,40.74
2022-10-13T08:50:16.551Z,40.64
2022-10-13T08:52:50.814Z,40.68
2022-10-13T08:55:32.140Z,40.75
2022-10-13T08:58:04.323Z,40.30
2022-10-13T09:00:32.856Z,40.10
2022-10-13T09:03:23.077Z,40.57
2022-10-13T09:06:06.289Z,39.96
2022-10-13T09:08:45.167Z,40.13
2022-10-13T09:11:14.469Z,39.81
2022-10-13T09:13:44.338Z,39.60
2022-10-13T09:16:12.878Z,39.91
2022-10-13T09:18:41.488Z,39.82
2022-10-13T09:21:20.759Z,39.75
2022-10-13T09:23:52.215Z,39.72
2022-10-13T09:26:25.654Z,39.73
2022-10-13T09:28:55.487Z,39.15
2022-10-13T09:31:27.465Z,39.41
2022-10-13T09:34:01.311Z,39.08
2022-10-13T09:36:31.415Z,39.19
2022-10-13T09:39:14.459Z,39.20
2022-10-13T09:41:44.746Z,39.12
2022-10-13T09:44:18.957Z,38.99
2022-10-13T09:46:54.748Z,38.92
2022-10-13T09:49:38.523Z,39.13
2022-10-13T09:52:16.507Z,38.94
2022-10-13T09:54:51.209Z,38.98
2022-10-13T09:57:29.863Z,38.87
2022-10-13T10:00:14.789Z,38.92
2022-10-13T10:02:51.894Z,38.87
2022-10-13T10:05:26.309Z,38.94
2022-10-13T10:07:57.480Z,38.67
2022-10-13T10:10:35.326Z,38.80
2022-10-13T10:13:05.026Z,38.48
2022-10-13T10:15:46.103Z,38.52
2022-10-13T10:18:20.027Z,38.52
2022-10-13T10:21:01.592Z,38.57
2022-10-13T10:23:43.890Z,38.63
2022-10-13T10:26:23.697Z,38.47
2022-10-13T10:29:20.928Z,38.35
2022-10-13T10:32:16.663Z,38.57
2022-10-13T10:34:54.397Z,38.59
2022-10-13T10:37:56.359Z,38.50
2022-10-13T10:40:37.773Z,38.77
2022-10-13T10:43:44.693Z,38.85
2022-10-13T10:46:18.755Z,38.35
2022-10-13T10:48:50.993Z,38.38
2022-10-13T10:51:20.646Z,38.22
2022-10-13T10:54:03.484Z,38.32
2022-10-13T10:56:36.742Z,38.40
2022-10-13T10:59:21.542Z,38.56
2022-10-13T11:02:03.766Z,38.36
2022-10-13T11:04:43.079Z,38.47
2022-10-13T11:07:32.598Z,38.86
2022-10-13T11:10:22.150Z,38.98
2022-10-13T11:13:22.270Z,39.14
2022-10-13T11:15:51.202Z,38.87
2022-10-13T11:19:08.786Z,39.00
2022-10-13T11:22:27.465Z,39.21
2022-10-13T11:25:25.023Z,39.08
2022-10-13T11:27:53.405Z,39.18
2022-10-13T11:30:43.893Z,39.32
2022-10-13T11:33:52.411Z,39.02
2022-10-13T11:36:51.195Z,39.35
2022-10-13T11:40:12.649Z,39.30
2022-10-13T11:43:28.451Z,39.44
2022-10-13T11:46:23.214Z,39.43
2022-10-13T11:49:28.617Z,39.31
2022-10-13T11:52:41.927Z,39.06
2022-10-13T11:55:16.401Z,38.67
2022-10-13T11:57:45.073Z,38.57
2022-10-13T12:00:17.650Z,38.31
2022-10-13T12:02:51.615Z,38.54
2022-10-13T12:05:25.618Z,38.33
2022-10-13T12:07:57.972Z,38.30
2022-10-13T12:10:34.942Z,38.16
2022-10-13T12:13:05.148Z,38.04
2022-10-13T12:15:36.496Z,37.99
2022-10-13T12:18:23.145Z,38.19
2022-10-13T12:20:55.964Z,37.87
2022-10-13T12:23:24.656Z,37.60
2022-10-13T12:25:58.469Z,37.23
2022-10-13T12:28:30.935Z,37.08
2022-10-13T12:31:00.948Z,36.86
2022-10-13T12:33:32.357Z,36.60
2022-10-13T12:36:15.169Z,36.30
2022-10-13T12:38:50.610Z,36.18
2022-10-13T12:41:26.818Z,36.08
2022-10-13T12:43:56.264Z,36.05
2022-10-13T12:46:41.180Z,36.32
2022-10-13T12:49:16.553Z,36.27
2022-10-13T12:51:49.614Z,36.27
2022-10-13T12:54:26.494Z,36.29
2022-10-13T12:57:00.156Z,36.19
2022-10-13T12:59:31.594Z,36.41
2022-10-13T13:02:03.165Z,36.26
2022-10-13T13:04:44.999Z,36.37
2022-10-13T13:07:33.086Z,36.65
2022-10-13T13:10:17.816Z,36.73
2022-10-13T13:12:49.242Z,36.84
2022-10-13T13:15:37.915Z,37.12
2022-10-13T13:18:41.642Z,37.14
2022-10-13T13:21:13.486Z,37.10
2022-10-13T13:23:42.789Z,37.06
2022-10-13T13:26:17.222Z,36.93
2022-10-13T13:28:49.818Z,36.95
2022-10-13T13:31:20.884Z,36.89
2022-10-13T13:33:49.515Z,36.92
2022-10-13T13:36:21.042Z,36.94
2022-10-13T13:38:50.356Z,37.01
2022-10-13T13:41:19.165Z,36.83
2022-10-13T13:43:50.807Z,36.75
2022-10-13T13:46:23.313Z,36.63
2022-10-13T13:48:52.119Z,36.89
2022-10-13T13:51:20.672Z,36.80
2022-10-13T13:53:49.070Z,36.92
2022-10-13T13:56:20.160Z,36.64
2022-10-13T13:58:50.113Z,36.76
2022-10-13T14:01:18.593Z,36.79
2022-10-13T14:03:47.083Z,36.85
2022-10-13T14:06:20.143Z,36.72
2022-10-13T14:08:48.842Z,36.76
2022-10-13T14:11:17.389Z,36.71
2022-10-13T14:13:45.842Z,36.65
2022-10-13T14:16:18.820Z,36.42
2022-10-13T14:18:47.223Z,36.76
2022-10-13T14:21:15.829Z,36.71
2022-10-13T14:23:47.057Z,36.68
2022-10-13T14:26:15.789Z,36.87
2022-10-13T14:28:44.552Z,36.88
2022-10-13T14:31:13.574Z,37.02
2022-10-13T14:33:43.467Z,37.04
2022-10-13T14:36:12.034Z,37.47
2022-10-13T14:38:40.495Z,37.25
2022-10-13T14:41:08.869Z,37.31
2022-10-13T14:43:37.330Z,37.75
2022-10-13T14:46:07.850Z,37.88
2022-10-13T14:48:37.931Z,37.98
2022-10-13T14:51:09.384Z,37.78
2022-10-13T14:53:39.756Z,37.85
2022-10-13T14:56:20.497Z,37.87
2022-10-13T14:58:50.480Z,38.28
2022-10-13T15:01:19.464Z,38.19
2022-10-13T15:03:48.267Z,38.22
2022-10-13T15:06:21.358Z,38.46
2022-10-13T15:08:50.724Z,38.13
2022-10-13T15:11:21.805Z,38.44
2022-10-13T15:13:50.618Z,38.60
2022-10-13T15:16:21.925Z,38.37
2022-10-13T15:18:50.770Z,38.50
2022-10-13T15:21:21.359Z,38.51
2022-10-13T15:23:49.844Z,38.66
2022-10-13T15:26:20.821Z,39.14
2022-10-13T15:28:52.046Z,39.21
2022-10-13T15:31:22.691Z,39.25
2022-10-13T15:33:53.514Z,39.42
2022-10-13T15:36:25.015Z,39.20
2022-10-13T15:38:53.675Z,39.50
2022-10-13T15:41:23.704Z,39.65
2022-10-13T15:43:52.217Z,39.99
2022-10-13T15:46:24.353Z,39.77
2022-10-13T15:48:55.331Z,40.10
2022-10-13T15:51:26.989Z,40.31
2022-10-13T15:53:56.227Z,40.05
2022-10-13T15:56:24.916Z,40.40
2022-10-13T15:58:53.858Z,40.54
2022-10-13T16:01:22.337Z,40.57
2022-10-13T16:03:55.606Z,40.79
2022-10-13T16:06:26.752Z,41.16
2022-10-13T16:08:55.355Z,40.99
2022-10-13T16:11:26.204Z,41.11
2022-10-13T16:13:54.719Z,41.46
2022-10-13T16:16:23.371Z,41.48
2022-10-13T16:18:51.985Z,41.45
2022-10-13T16:21:23.912Z,41.51
2022-10-13T16:23:54.092Z,41.82
2022-10-13T16:26:22.632Z,42.10
2022-10-13T16:28:54.930Z,41.95
2022-10-13T16:31:23.381Z,42.14
2022-10-13T16:33:51.770Z,42.05
2022-10-13T16:36:21.387Z,42.35
2022-10-13T16:38:49.774Z,42.43
2022-10-13T16:41:20.041Z,42.44
2022-10-13T16:43:49.299Z,42.71
2022-10-13T16:46:20.046Z,42.79
2022-10-13T16:48:49.078Z,42.84
2022-10-13T16:51:20.562Z,42.95
2022-10-13T16:53:50.570Z,42.97
2022-10-13T16:56:22.312Z,43.07
2022-10-13T16:58:51.405Z,43.18
2022-10-13T17:01:19.928Z,43.22
2022-10-13T17:03:51.239Z,43.30
2022-10-13T17:06:22.241Z,43.35
2022-10-13T17:08:50.818Z,43.39
2022-10-13T17:11:23.292Z,43.75
2022-10-13T17:13:53.890Z,43.58
2022-10-13T17:16:22.832Z,43.70
2022-10-13T17:18:52.001Z,43.87
2022-10-13T17:21:22.180Z,43.90
2022-10-13T17:23:51.496Z,43.87
2022-10-13T17:26:23.383Z,44.07
2022-10-13T17:28:53.071Z,44.01
2022-10-13T17:31:24.660Z,44.12
2022-10-13T17:33:54.868Z,44.14
2022-10-13T17:36:26.985Z,44.12
2022-10-13T17:38:58.318Z,44.46
2022-10-13T17:41:30.506Z,44.47
2022-10-13T17:44:01.048Z,44.23
2022-10-13T17:46:38.241Z,44.67
2022-10-13T17:49:11.094Z,44.66
2022-10-13T17:51:43.451Z,44.81
2022-10-13T17:54:16.873Z,44.79
2022-10-13T17:56:49.760Z,45.07
2022-10-13T17:59:20.464Z,45.06
2022-10-13T18:01:49.136Z,45.14
2022-10-13T18:04:20.976Z,45.20
2022-10-13T18:06:50.923Z,45.22
2022-10-13T18:09:24.511Z,45.25
2022-10-13T18:11:56.543Z,45.45
2022-10-13T18:14:27.088Z,45.30
2022-10-13T18:16:56.820Z,45.40
2022-10-13T18:19:27.875Z,45.43
2022-10-13T18:21:58.364Z,45.60
2022-10-13T18:24:27.617Z,45.46
2022-10-13T18:26:58.836Z,45.63
2022-10-13T18:29:28.818Z,45.60
2022-10-13T18:31:59.737Z,45.78
2022-10-13T18:34:30.988Z,45.83
2022-10-13T18:37:02.405Z,45.92
2022-10-13T18:39:34.688Z,46.13
2022-10-13T18:42:09.282Z,46.17
2022-10-13T18:44:38.892Z,46.28
2022-10-13T18:47:09.521Z,46.43
2022-10-13T18:49:39.522Z,46.63
2022-10-13T18:52:12.280Z,46.31
2022-10-13T18:54:42.721Z,46.42
2022-10-13T18:57:14.642Z,46.80
2022-10-13T18:59:46.236Z,46.83
2022-10-13T19:02:16.977Z,46.71
2022-10-13T19:04:46.320Z,46.91
2022-10-13T19:07:14.921Z,46.82
2022-10-13T19:09:44.351Z,46.89
2022-10-13T19:12:14.951Z,46.93
2022-10-13T19:14:45.931Z,46.87
2022-10-13T19:17:15.156Z,46.84
2022-10-13T19:19:46.065Z,46.83
2022-10-13T19:22:15.550Z,46.90
2022-10-13T19:24:47.375Z,46.98
2022-10-13T19:27:20.850Z,47.16
2022-10-13T19:29:55.364Z,47.35
2022-10-13T19:32:26.246Z,47.23
2022-10-13T19:34:57.083Z,47.30
2022-10-13T19:37:28.679Z,47.42
2022-10-13T19:39:59.822Z,47.36
2022-10-13T19:42:31.132Z,47.32
2022-10-13T19:45:02.731Z,47.49
2022-10-13T19:47:33.152Z,47.28
2022-10-13T19:50:03.356Z,47.38
2022-10-13T19:52:34.892Z,47.37
2022-10-13T19:55:07.121Z,47.38
2022-10-13T19:57:38.549Z,47.48
2022-10-13T20:00:10.270Z,47.42
2022-10-13T20:02:39.540Z,47.48
2022-10-13T20:05:09.853Z,47.38
2022-10-13T20:07:38.718Z,47.22
2022-10-13T20:10:08.845Z,47.39
2022-10-13T20:12:39.290Z,47.31
2022-10-13T20:15:08.706Z,47.38
2022-10-13T20:17:37.740Z,47.42
2022-10-13T20:20:08.234Z,47.40
2022-10-13T20:22:37.627Z,47.51
2022-10-13T20:25:07.957Z,47.40
2022-10-13T20:27:39.636Z,47.47
2022-10-13T20:30:10.082Z,47.41
2022-10-13T20:32:38.732Z,47.58
2022-10-13T20:35:08.373Z,47.65
2022-10-13T20:37:36.870Z,47.45
2022-10-13T20:40:06.647Z,47.61
2022-10-13T20:42:35.033Z,47.60
2022-10-13T20:45:05.679Z,47.65
2022-10-13T20:47:34.098Z,47.73
2022-10-13T20:50:02.531Z,47.62
2022-10-13T20:52:30.951Z,47.69
2022-10-13T20:54:59.354Z,47.70
2022-10-13T20:57:27.767Z,47.86
2022-10-13T20:59:56.158Z,47.79
2022-10-13T21:02:25.912Z,47.80
2022-10-13T21:04:54.315Z,47.87
2022-10-13T21:07:23.101Z,47.82
2022-10-13T21:09:54.007Z,47.99
2022-10-13T21:12:22.633Z,48.02
2022-10-13T21:14:51.009Z,48.05
2022-10-13T21:17:19.687Z,48.05
2022-10-13T21:19:49.851Z,48.06
2022-10-13T21:22:18.258Z,47.94
2022-10-13T21:24:46.586Z,47.86
2022-10-13T21:27:14.932Z,47.98
2022-10-13T21:29:43.289Z,47.99
2022-10-13T21:32:12.008Z,48.11
2022-10-13T21:34:40.381Z,47.95
2022-10-13T21:37:10.109Z,48.09
2022-10-13T21:39:38.733Z,48.04
2022-10-13T21:42:07.205Z,48.03
2022-10-13T21:44:35.602Z,48.19
2022-10-13T21:47:04.026Z,48.18
2022-10-13T21:49:33.000Z,48.13
2022-10-13T21:52:01.405Z,48.30
2022-10-13T21:54:31.130Z,48.43
2022-10-13T21:56:59.745Z,48.46
2022-10-13T21:59:28.376Z,48.45
2022-10-13T22:01:56.714Z,48.56
2022-10-13T22:04:25.079Z,48.45
2022-10-13T22:06:53.451Z,48.35
2022-10-13T22:09:21.832Z,48.38
2022-10-13T22:11:56.219Z,48.31
2022-10-13T22:14:25.266Z,48.48
2022-10-13T22:16:55.335Z,48.33
2022-10-13T22:19:24.344Z,48.45
2022-10-13T22:21:52.919Z,48.36
2022-10-13T22:24:22.931Z,48.44
2022-10-13T22:26:53.050Z,48.38
2022-10-13T22:29:23.251Z,48.56
2022-10-13T22:31:55.900Z,48.65
2022-10-13T22:34:24.426Z,48.62
2022-10-13T22:36:54.674Z,48.68
2022-10-13T22:39:23.483Z,48.70
2022-10-13T22:41:53.197Z,48.86
2022-10-13T22:44:21.579Z,48.95
2022-10-13T22:46:50.147Z,49.03
2022-10-13T22:49:18.502Z,48.91
2022-10-13T22:51:46.870Z,48.81
2022-10-13T22:54:15.251Z,49.00
2022-10-13T22:56:43.680Z,49.09
2022-10-13T22:59:14.247Z,49.19
2022-10-13T23:01:42.670Z,49.15
2022-10-13T23:04:11.153Z,49.26
2022-10-13T23:06:39.924Z,49.23
2022-10-13T23:09:11.786Z,49.12
2022-10-13T23:11:40.205Z,49.15
2022-10-13T23:14:08.620Z,49.24
2022-10-13T23:16:38.369Z,49.20
2022-10-13T23:19:06.875Z,49.20
2022-10-13T23:21:35.268Z,49.19
2022-10-13T23:24:06.287Z,49.42
2022-10-13T23:26:35.878Z,49.29
2022-10-13T23:29:05.316Z,49.32
2022-10-13T23:31:33.759Z,49.28
2022-10-13T23:34:03.530Z,49.38
2022-10-13T23:36:33.956Z,49.40
2022-10-13T23:39:05.525Z,49.62
2022-10-13T23:41:35.217Z,49.41
2022-10-13T23:44:03.707Z,49.56
2022-10-13T23:46:32.512Z,49.53
2022-10-13T23:49:02.292Z,49.34
2022-10-13T23:51:30.708Z,49.49
2022-10-13T23:54:00.098Z,49.33
2022-10-13T23:56:28.549Z,49.52
2022-10-13T23:58:56.929Z,49.29
